createdAt,value
2018-11-21T00:04:16.904Z,10.90
2018-11-21T00:09:44.485Z,11.53
2018-11-21T00:15:12.308Z,11.37
2018-11-21T00:20:40.828Z,11.30
2018-11-21T00:26:08.459Z,11.30
2018-11-21T00:28:49.970Z,11.70
2018-11-21T00:34:18.043Z,12.13
2018-11-21T00:39:45.698Z,11.90
2018-11-21T00:45:13.997Z,11.37
2018-11-21T00:47:55.913Z,10.67
2018-11-21T00:53:23.098Z,12.10
2018-11-21T00:58:50.619Z,10.83
2018-11-21T01:04:18.135Z,10.50
2018-11-21T01:09:45.459Z,11.60
2018-11-21T01:15:13.771Z,11.67
2018-11-21T01:20:41.936Z,11.33
2018-11-21T01:26:36.252Z,11.30
2018-11-21T01:32:04.138Z,11.10
2018-11-21T01:37:32.348Z,12.20
2018-11-21T01:42:59.682Z,10.57
2018-11-21T01:45:41.851Z,11.00
2018-11-21T01:51:09.854Z,10.47
2018-11-21T01:56:36.836Z,11.07
2018-11-21T02:02:05.553Z,11.40
2018-11-21T02:07:32.209Z,11.43
2018-11-21T02:13:00.731Z,11.07
2018-11-21T02:18:29.136Z,10.70
2018-11-21T02:23:57.132Z,9.93
2018-11-21T02:32:32.457Z,10.60
2018-11-21T02:35:13.881Z,9.77
2018-11-21T02:40:42.218Z,10.90
2018-11-21T02:46:09.823Z,10.17
2018-11-21T02:51:36.794Z,10.47
2018-11-21T02:54:18.255Z,9.27
2018-11-21T02:59:47.256Z,10.47
2018-11-21T03:05:34.227Z,10.03
2018-11-21T03:08:15.904Z,10.57
2018-11-21T03:13:43.635Z,10.03
2018-11-21T03:19:10.901Z,9.00
2018-11-21T03:24:38.878Z,10.23
2018-11-21T03:30:06.588Z,9.57
2018-11-21T03:35:33.957Z,9.03
2018-11-21T03:41:02.412Z,9.20
2018-11-21T03:46:29.639Z,9.83
2018-11-21T03:51:57.347Z,8.30
2018-11-21T03:57:24.699Z,9.70
2018-11-21T04:02:52.871Z,9.00
2018-11-21T04:08:47.406Z,9.80
2018-11-21T04:14:15.313Z,9.17
2018-11-21T04:19:42.357Z,8.70
2018-11-21T04:25:10.022Z,9.30
2018-11-21T04:30:37.385Z,9.30
2018-11-21T04:33:19.250Z,8.87
2018-11-21T04:38:46.662Z,9.73
2018-11-21T04:44:14.870Z,8.37
2018-11-21T04:49:42.693Z,8.43
2018-11-21T04:55:10.462Z,8.37
2018-11-21T05:03:43.851Z,8.23
2018-11-21T05:09:10.948Z,8.80
2018-11-21T05:14:38.594Z,8.47
2018-11-21T05:20:06.466Z,8.53
2018-11-21T05:25:34.501Z,8.40
2018-11-21T05:34:07.185Z,8.63
2018-11-21T05:39:34.837Z,8.73
2018-11-21T05:45:02.877Z,8.47
2018-11-21T05:50:30.250Z,8.60
2018-11-21T05:55:58.466Z,9.03
2018-11-21T06:01:25.951Z,8.70
2018-11-21T06:06:53.355Z,8.33
2018-11-21T06:09:35.710Z,9.30
2018-11-21T06:12:16.924Z,8.73
2018-11-21T06:17:48.092Z,7.93
2018-11-21T06:23:13.302Z,8.63
2018-11-21T06:28:40.949Z,8.23
2018-11-21T06:34:08.837Z,7.90
2018-11-21T06:39:36.475Z,8.23
2018-11-21T06:48:09.996Z,7.77
2018-11-21T06:53:37.713Z,7.40
2018-11-21T06:59:06.003Z,7.53
2018-11-21T07:04:33.426Z,7.70
2018-11-21T07:10:01.104Z,8.60
2018-11-21T07:12:44.886Z,8.87
2018-11-21T07:15:28.860Z,9.03
2018-11-21T07:20:59.005Z,8.43
2018-11-21T07:26:28.345Z,9.27
2018-11-21T07:31:55.933Z,9.23
2018-11-21T07:37:23.344Z,10.43
2018-11-21T07:42:51.469Z,8.90
2018-11-21T07:48:20.504Z,9.73
2018-11-21T07:53:46.553Z,11.20
2018-11-21T07:59:14.493Z,12.20
2018-11-21T08:04:42.271Z,11.80
2018-11-21T08:10:10.132Z,10.37
2018-11-21T08:15:38.430Z,11.03
2018-11-21T08:21:05.608Z,10.67
2018-11-21T08:26:33.211Z,10.77
2018-11-21T08:32:01.613Z,19.43
2018-11-21T08:37:29.438Z,18.70
2018-11-21T08:42:57.124Z,23.63
2018-11-21T08:48:24.285Z,34.67
2018-11-21T08:51:06.201Z,34.37
2018-11-21T08:57:00.796Z,27.97
2018-11-21T09:02:55.592Z,32.30
2018-11-21T09:08:34.746Z,36.57
2018-11-21T09:14:03.253Z,36.00
2018-11-21T09:19:31.139Z,30.77
2018-11-21T09:24:58.844Z,26.17
2018-11-21T09:30:26.525Z,27.20
2018-11-21T09:36:20.697Z,24.53
2018-11-21T09:41:48.664Z,23.47
2018-11-21T09:47:16.092Z,22.87
2018-11-21T09:52:43.505Z,21.93
2018-11-21T09:55:24.940Z,22.23
2018-11-21T10:04:00.956Z,20.77
2018-11-21T10:06:39.879Z,20.30
2018-11-21T10:09:21.631Z,19.03
2018-11-21T10:14:48.935Z,19.90
2018-11-21T10:23:22.453Z,18.07
2018-11-21T10:28:50.253Z,19.27
2018-11-21T10:34:17.944Z,18.93
2018-11-21T10:39:45.378Z,18.07
2018-11-21T10:45:39.285Z,18.17
2018-11-21T10:51:06.906Z,18.67
2018-11-21T10:56:34.141Z,17.60
2018-11-21T11:02:01.067Z,18.07
2018-11-21T11:07:28.750Z,18.13
2018-11-21T11:12:56.524Z,16.97
2018-11-21T11:15:37.988Z,16.87
2018-11-21T11:24:11.109Z,16.23
2018-11-21T11:30:04.438Z,16.67
2018-11-21T11:35:31.850Z,17.13
2018-11-21T11:40:59.661Z,17.37
2018-11-21T11:46:26.191Z,16.40
2018-11-21T11:49:08.079Z,17.20
2018-11-21T11:51:49.716Z,16.93
2018-11-21T11:57:17.694Z,17.43
2018-11-21T11:59:59.508Z,17.80
2018-11-21T12:05:27.653Z,15.70
2018-11-21T12:10:56.829Z,16.57
2018-11-21T12:16:24.316Z,16.37
2018-11-21T12:21:51.890Z,16.73
2018-11-21T12:27:21.100Z,17.37
2018-11-21T12:32:48.667Z,17.43
2018-11-21T12:38:17.592Z,16.13
2018-11-21T12:43:47.668Z,18.03
2018-11-21T12:49:15.233Z,16.97
2018-11-21T12:54:41.808Z,17.23
2018-11-21T12:57:23.357Z,16.70
2018-11-21T13:02:50.913Z,17.23
2018-11-21T13:08:19.209Z,18.43
2018-11-21T13:13:47.160Z,16.43
2018-11-21T13:19:15.054Z,17.70
2018-11-21T13:22:18.552Z,17.23
2018-11-21T13:25:05.122Z,16.70
2018-11-21T13:28:12.937Z,17.70
2018-11-21T13:30:54.538Z,17.00
2018-11-21T13:36:22.693Z,17.63
2018-11-21T13:39:04.353Z,18.63
2018-11-21T13:41:45.800Z,16.60
2018-11-21T13:47:33.493Z,17.57
2018-11-21T13:53:01.133Z,17.87
2018-11-21T13:55:43.010Z,15.63
2018-11-21T14:01:10.967Z,16.37
2018-11-21T14:06:38.725Z,16.97
2018-11-21T14:12:06.873Z,17.73
2018-11-21T14:17:34.772Z,17.30
2018-11-21T14:23:02.728Z,17.67
2018-11-21T14:28:30.272Z,17.60
2018-11-21T14:33:58.109Z,17.30
2018-11-21T14:39:25.439Z,15.80
2018-11-21T14:44:52.177Z,16.97
2018-11-21T14:50:20.052Z,16.03
2018-11-21T14:53:01.379Z,16.23
2018-11-21T14:58:29.811Z,16.57
